Time;durP1;ratioP1;P1;durP2;ratioP2;P2;SDS_P1;SDS_P2;PMS_P1;PMS_P2;Temp;Humidity;BMP_temperature;BMP_pressure;BME280_temperature;BME280_humidity;BME280_pressure;Samples;Min_cycle;Max_cycle;Signal;HPM_P1;HPM_P2
2023/01/18 00:01:08;;;;;;;6.57;5.95;;;;;;;2.67;81.60;96290.00;5105417;28;20303;-72
2023/01/18 00:03:37;;;;;;;6.50;5.53;;;;;;;2.79;81.71;96302.19;5105612;28;20090;-72
2023/01/18 00:06:05;;;;;;;6.07;5.47;;;;;;;2.80;81.56;96298.63;5104970;28;20252;-72
2023/01/18 00:08:36;;;;;;;6.00;5.00;;;;;;;2.83;81.59;96305.41;5105800;28;20043;-72
2023/01/18 00:11:04;;;;;;;4.93;4.47;;;;;;;2.83;81.50;96295.78;5105864;28;20040;-72
2023/01/18 00:13:30;;;;;;;5.63;4.68;;;;;;;2.86;81.42;96287.72;5106033;28;20263;-72
2023/01/18 00:16:02;;;;;;;5.05;4.55;;;;;;;2.30;81.37;96194.25;5105471;28;20040;-72
2023/01/18 00:18:29;;;;;;;4.88;4.40;;;;;;;2.40;81.39;96213.56;5105404;28;20291;-72
2023/01/18 00:21:00;;;;;;;4.47;4.07;;;;;;;2.87;81.25;96275.47;5105381;28;20103;-72
2023/01/18 00:23:27;;;;;;;4.57;4.18;;;;;;;2.90;81.26;96283.09;5105917;28;20123;-72
2023/01/18 00:25:59;;;;;;;5.07;4.57;;;;;;;2.91;81.34;96286.53;5105562;28;20103;-72
2023/01/18 00:28:26;;;;;;;4.72;4.22;;;;;;;2.92;81.21;96286.44;5105421;28;20047;-72
2023/01/18 00:30:53;;;;;;;4.72;4.22;;;;;;;2.93;81.19;96280.25;5087946;28;20044;-72
2023/01/18 00:33:20;;;;;;;4.65;4.10;;;;;;;2.94;81.25;96291.56;5104598;28;20040;-72
2023/01/18 00:35:55;;;;;;;4.45;3.90;;;;;;;1.96;80.95;96139.22;5106388;28;20059;-72
2023/01/18 00:38:21;;;;;;;5.78;5.20;;;;;;;2.96;81.07;96307.97;5109540;28;20036;-71
2023/01/18 00:40:48;;;;;;;4.53;4.13;;;;;;;2.97;81.03;96307.03;5108469;28;20292;-71
2023/01/18 00:46:01;;;;;;;4.93;4.40;;;;;;;2.96;81.17;96310.59;5108124;28;20052;-71
2023/01/18 00:48:27;;;;;;;5.53;4.65;;;;;;;2.98;81.10;96311.31;5109080;28;20040;-72
2023/01/18 00:50:54;;;;;;;4.88;4.38;;;;;;;2.98;81.39;96309.53;5107984;28;20050;-72
2023/01/18 00:53:21;;;;;;;5.47;4.97;;;;;;;2.99;81.40;96312.97;5108040;28;20040;-72
2023/01/18 00:55:48;;;;;;;6.00;5.40;;;;;;;2.99;81.50;96324.28;5108882;28;20062;-71
2023/01/18 00:58:16;;;;;;;5.50;4.72;;;;;;;2.99;81.40;96321.66;5108765;28;20195;-72
2023/01/18 01:00:43;;;;;;;4.72;4.20;;;;;;;3.01;81.35;96324.16;5107640;28;20051;-72
2023/01/18 01:03:11;;;;;;;4.85;4.35;;;;;;;3.02;81.21;96321.44;5107765;28;20044;-72
2023/01/18 01:08:24;;;;;;;5.53;4.60;;;;;;;1.16;81.13;96018.72;5110113;28;20199;-72
2023/01/18 01:10:53;;;;;;;5.18;4.68;;;;;;;3.02;81.39;96315.38;5109414;28;20052;-73
2023/01/18 01:27:06;;;;;;;5.05;4.28;;;;;;;3.02;81.57;96294.44;5107418;28;20040;-72
2023/01/18 01:29:36;;;;;;;5.03;4.53;;;;;;;3.04;81.46;96295.16;5107870;28;20058;-72
2023/01/18 01:32:05;;;;;;;5.20;4.70;;;;;;;3.05;81.60;96299.44;5106954;28;20040;-72
2023/01/18 01:34:32;;;;;;;4.78;4.28;;;;;;;3.05;81.51;96288.97;5108921;28;20055;-71
2023/01/18 01:36:59;;;;;;;5.05;4.55;;;;;;;3.05;81.60;96295.06;5108141;28;20050;-72
2023/01/18 01:39:25;;;;;;;12.85;10.65;;;;;;;3.00;81.90;96298.94;5108252;28;20190;-72
2023/01/18 01:41:52;;;;;;;12.25;10.02;;;;;;;3.11;82.32;96306.84;5108461;28;20054;-72
2023/01/18 01:44:48;;;;;;;7.28;6.38;;;;;;;3.13;82.08;96289.25;5107885;28;20191;-72
2023/01/18 01:47:27;;;;;;;6.10;4.70;;;;;;;3.11;81.84;96284.13;5106828;28;20044;-72
2023/01/18 01:49:58;;;;;;;5.07;4.28;;;;;;;3.09;81.75;96287.81;5107704;28;20225;-72
2023/01/18 01:52:29;;;;;;;4.65;4.25;;;;;;;3.09;81.66;96287.81;5107559;28;20055;-72
2023/01/18 01:55:00;;;;;;;4.50;4.07;;;;;;;3.10;81.52;96289.47;5107592;28;20050;-72
2023/01/18 01:57:30;;;;;;;4.47;3.97;;;;;;;3.10;81.35;96303.41;5107842;28;20067;-72
2023/01/18 02:00:02;;;;;;;4.82;4.13;;;;;;;3.11;81.27;96323.38;5107667;28;20052;-72
2023/01/18 02:02:30;;;;;;;6.18;4.15;;;;;;;2.97;81.24;96320.94;5108067;28;20054;-72
2023/01/18 02:04:59;;;;;;;4.78;4.38;;;;;;;3.09;81.16;96382.84;5108027;28;20085;-72
2023/01/18 02:07:27;;;;;;;5.00;4.50;;;;;;;3.08;80.99;96398.66;5107666;28;20048;-72
2023/01/18 02:09:55;;;;;;;4.38;3.95;;;;;;;3.03;80.54;96395.53;5107665;28;20044;-72
2023/01/18 02:12:21;;;;;;;5.00;4.50;;;;;;;3.03;80.74;96404.22;5107803;28;20094;-72
2023/01/18 02:14:48;;;;;;;4.90;4.50;;;;;;;3.00;80.61;96395.75;5107802;28;20044;-72
2023/01/18 02:17:31;;;;;;;4.65;4.22;;;;;;;2.97;80.60;96369.81;5107217;28;20046;-72
2023/01/18 02:20:29;;;;;;;5.82;5.22;;;;;;;2.90;81.07;96351.09;5107762;28;20199;-72
2023/01/18 02:23:30;;;;;;;6.88;5.10;;;;;;;2.85;81.31;96343.59;5102865;28;20064;-72
2023/01/18 02:26:45;;;;;;;5.28;4.13;;;;;;;2.85;81.63;96345.38;5107333;28;20040;-72
2023/01/18 02:29:17;;;;;;;5.03;4.53;;;;;;;2.84;81.33;96348.94;5107502;28;20052;-72
2023/01/18 02:32:00;;;;;;;4.57;4.15;;;;;;;2.85;81.42;96359.28;5106905;28;20032;-73
2023/01/18 02:34:34;;;;;;;4.53;4.13;;;;;;;2.88;80.99;96345.16;5106073;28;20046;-72
2023/01/18 02:37:07;;;;;;;4.67;4.10;;;;;;;2.92;81.27;96343.16;5106846;28;20040;-72
2023/01/18 02:39:41;;;;;;;4.53;4.13;;;;;;;2.51;81.41;96292.88;5106716;28;20054;-72
2023/01/18 02:47:49;;;;;;;4.25;3.85;;;;;;;2.95;81.17;96356.84;5106957;28;20044;-72
2023/01/18 02:50:23;;;;;;;4.63;4.18;;;;;;;2.97;81.03;96343.66;5106810;28;20093;-72
2023/01/18 02:52:52;;;;;;;4.73;4.33;;;;;;;2.99;81.10;96347.81;5105789;28;20188;-71
2023/01/18 02:55:31;;;;;;;4.97;4.47;;;;;;;2.98;81.05;96350.56;5106496;28;20079;-72
2023/01/18 02:58:04;;;;;;;4.72;4.22;;;;;;;2.98;80.87;96361.00;5105755;28;20035;-72
2023/01/18 03:00:36;;;;;;;4.35;3.95;;;;;;;2.82;80.77;96317.66;5119199;27;20063;-72
2023/01/18 03:03:06;;;;;;;4.53;4.13;;;;;;;3.00;80.83;96328.56;5106346;28;20044;-72
2023/01/18 03:05:35;;;;;;;4.60;4.10;;;;;;;3.01;80.96;96321.56;5106269;28;20191;-72
2023/01/18 03:08:09;;;;;;;4.93;4.40;;;;;;;2.99;81.19;96315.59;5106819;28;20044;-72
2023/01/18 03:10:42;;;;;;;4.40;4.00;;;;;;;2.98;81.28;96320.00;5106151;28;20047;-72
2023/01/18 03:13:16;;;;;;;4.68;4.28;;;;;;;3.00;81.30;96312.88;5106155;28;20036;-72
2023/01/18 03:15:48;;;;;;;4.50;4.10;;;;;;;3.00;81.24;96320.72;5106694;28;20050;-72
2023/01/18 03:18:21;;;;;;;4.45;4.05;;;;;;;3.00;81.33;96325.13;5106665;28;20089;-72
2023/01/18 03:20:52;;;;;;;4.95;4.50;;;;;;;3.01;81.33;96332.00;5105264;28;20054;-73
2023/01/18 03:23:41;;;;;;;5.43;4.43;;;;;;;3.04;81.34;96332.63;5106043;28;20040;-72
2023/01/18 03:26:09;;;;;;;5.18;4.68;;;;;;;3.03;81.27;96320.50;5105191;28;20039;-72
2023/01/18 03:34:22;;;;;;;4.68;4.28;;;;;;;3.06;81.08;96288.88;5105685;28;20085;-73
2023/01/18 03:36:52;;;;;;;4.93;4.47;;;;;;;3.10;80.96;96292.94;5105319;28;20067;-72
2023/01/18 03:39:27;;;;;;;5.38;4.88;;;;;;;3.11;81.11;96285.91;5106020;28;20040;-73
2023/01/18 03:41:59;;;;;;;6.30;5.70;;;;;;;2.93;81.04;96258.50;5104977;28;20075;-73
2023/01/18 03:44:33;;;;;;;5.28;4.78;;;;;;;3.10;81.08;96271.16;5105764;28;20031;-73
2023/01/18 03:47:02;;;;;;;6.03;5.43;;;;;;;3.09;81.37;96279.97;5106030;28;20047;-73
2023/01/18 03:49:30;;;;;;;5.55;5.05;;;;;;;3.12;81.21;96285.81;5106269;28;20044;-72
2023/01/18 03:52:14;;;;;;;5.47;4.97;;;;;;;3.13;81.23;96289.25;5104770;28;20044;-73
2023/01/18 03:54:51;;;;;;;6.00;5.40;;;;;;;3.10;81.35;96289.47;5104882;28;20388;-73
2023/01/18 03:57:25;;;;;;;5.25;4.75;;;;;;;3.10;81.40;96287.69;5104784;28;20465;-73
2023/01/18 03:59:52;;;;;;;5.70;5.20;;;;;;;3.10;81.30;96294.72;5104795;28;20040;-73
2023/01/18 04:02:21;;;;;;;5.78;5.18;;;;;;;3.10;81.19;96290.31;5105530;28;20515;-73
2023/01/18 04:04:47;;;;;;;5.82;5.25;;;;;;;3.10;81.13;96300.78;5104699;28;20036;-73
2023/01/18 04:07:14;;;;;;;5.70;5.13;;;;;;;0.83;80.85;95938.50;5105565;28;20322;-72
2023/01/18 04:09:41;;;;;;;5.93;5.32;;;;;;;3.08;81.06;96310.53;5106096;28;20046;-73
2023/01/18 04:12:08;;;;;;;5.45;4.95;;;;;;;3.07;81.22;96321.09;5108719;28;20070;-73
2023/01/18 04:14:35;;;;;;;5.70;5.20;;;;;;;3.08;81.09;96321.00;5110118;28;20054;-73
2023/01/18 04:17:02;;;;;;;5.45;4.95;;;;;;;3.07;81.33;96324.56;5109806;28;20044;-73
2023/01/18 04:19:30;;;;;;;6.40;5.80;;;;;;;3.08;81.21;96313.13;5110235;28;20196;-73
2023/01/18 04:21:57;;;;;;;5.60;5.10;;;;;;;3.10;81.00;96315.66;5110001;28;20107;-72
2023/01/18 04:24:24;;;;;;;6.65;5.97;;;;;;;3.11;80.71;96319.94;5109907;28;20111;-72
2023/01/18 04:26:50;;;;;;;6.18;5.53;;;;;;;3.10;80.98;96318.25;5109851;28;20040;-72
2023/01/18 04:29:17;;;;;;;6.18;5.57;;;;;;;3.07;80.99;96321.94;5109299;28;20054;-73
2023/01/18 04:31:44;;;;;;;5.70;5.20;;;;;;;3.07;80.89;96321.94;5109158;28;20046;-73
2023/01/18 04:34:11;;;;;;;6.05;5.45;;;;;;;3.04;81.11;96323.94;5108374;28;20176;-72
2023/01/18 04:36:39;;;;;;;6.30;5.40;;;;;;;0.62;80.75;95926.97;5109169;28;20055;-72
2023/01/18 04:39:05;;;;;;;5.60;5.07;;;;;;;3.03;81.15;96335.34;5109351;28;20044;-73
2023/01/18 04:41:33;;;;;;;5.85;5.28;;;;;;;3.05;81.04;96330.84;5109040;28;20036;-72
2023/01/18 04:43:59;;;;;;;6.20;5.60;;;;;;;3.05;81.16;96341.31;5108152;28;20101;-73
2023/01/18 04:46:26;;;;;;;5.65;5.15;;;;;;;3.06;80.90;96337.75;5108941;28;20046;-72
2023/01/18 04:48:53;;;;;;;6.35;5.75;;;;;;;3.06;81.02;96335.97;5109192;28;20036;-72
2023/01/18 04:51:22;;;;;;;5.57;5.05;;;;;;;2.92;81.05;96309.13;5109184;28;20036;-73
2023/01/18 04:53:51;;;;;;;6.20;5.60;;;;;;;3.01;81.20;96327.63;5108805;28;20047;-72
2023/01/18 04:56:18;;;;;;;6.32;5.72;;;;;;;3.04;81.19;96327.41;5109305;28;20036;-72
2023/01/18 04:58:45;;;;;;;5.80;5.20;;;;;;;3.06;81.21;96332.50;5109105;28;20210;-72
2023/01/18 05:01:12;;;;;;;5.90;5.30;;;;;;;3.06;81.08;96329.91;5108725;28;20059;-72
2023/01/18 05:03:40;;;;;;;6.15;5.55;;;;;;;3.08;80.83;96333.25;5108636;28;20306;-72
2023/01/18 05:06:09;;;;;;;6.75;5.90;;;;;;;3.09;80.79;96340.97;5108289;28;20043;-72
2023/01/18 05:08:39;;;;;;;6.57;5.80;;;;;;;3.09;80.77;96351.44;5107638;28;20077;-72
2023/01/18 05:11:10;;;;;;;6.18;5.40;;;;;;;3.09;80.79;96367.16;5108823;28;20320;-72
2023/01/18 05:13:37;;;;;;;6.78;6.07;;;;;;;3.09;80.71;96380.22;5108475;28;20051;-72
2023/01/18 05:16:05;;;;;;;7.00;6.22;;;;;;;3.11;80.80;96398.44;5108556;28;20297;-72
2023/01/18 05:18:32;;;;;;;6.30;5.70;;;;;;;2.65;80.75;96335.50;5107487;28;20090;-72
2023/01/18 05:20:59;;;;;;;6.82;6.13;;;;;;;3.08;80.60;96422.19;5108295;28;20115;-72
2023/01/18 05:23:26;;;;;;;6.85;6.15;;;;;;;3.04;80.54;96420.75;5106903;28;20042;-72
2023/01/18 05:25:53;;;;;;;6.93;6.22;;;;;;;3.02;80.61;96436.56;5107351;28;20043;-72
2023/01/18 05:28:23;;;;;;;7.53;6.78;;;;;;;2.62;80.67;96388.00;5108303;28;20051;-72
2023/01/18 05:30:50;;;;;;;7.20;6.50;;;;;;;2.98;80.91;96449.97;5108395;28;20036;-72
2023/01/18 05:33:17;;;;;;;7.53;6.82;;;;;;;2.95;81.10;96448.41;5107118;28;20046;-72
2023/01/18 05:35:49;;;;;;;7.18;6.47;;;;;;;2.92;81.03;96453.00;5107998;28;20059;-72
2023/01/18 05:38:16;;;;;;;6.72;6.00;;;;;;;2.93;80.91;96454.69;5107181;28;20118;-73
2023/01/18 05:40:44;;;;;;;8.43;7.57;;;;;;;2.97;81.03;96461.38;5108194;28;20091;-72
2023/01/18 05:43:11;;;;;;;8.00;6.85;;;;;;;2.96;81.09;96454.47;5107016;28;20040;-72
2023/01/18 05:45:41;;;;;;;7.72;6.80;;;;;;;2.98;80.88;96457.81;5107760;28;20106;-72
2023/01/18 05:48:08;;;;;;;7.53;6.72;;;;;;;2.99;80.92;96454.25;5108200;28;20051;-72
2023/01/18 05:50:35;;;;;;;8.23;7.20;;;;;;;3.00;80.91;96455.94;5108032;28;20058;-73
2023/01/18 05:53:02;;;;;;;9.55;7.50;;;;;;;3.02;80.73;96454.88;5107116;28;20333;-72
2023/01/18 05:55:28;;;;;;;9.93;8.02;;;;;;;3.04;80.77;96452.97;5107491;28;20035;-72
2023/01/18 05:57:55;;;;;;;10.07;8.80;;;;;;;3.02;80.86;96456.66;5107370;28;20056;-72
2023/01/18 06:00:22;;;;;;;9.70;8.70;;;;;;;3.02;80.93;96449.66;5107892;28;20057;-72
2023/01/18 06:02:52;;;;;;;10.98;9.85;;;;;;;3.02;81.05;96454.88;5107355;28;20110;-72
2023/01/18 06:05:19;;;;;;;10.93;9.25;;;;;;;2.65;80.84;96393.84;5107178;28;20051;-72
2023/01/18 06:07:46;;;;;;;9.95;8.75;;;;;;;3.01;80.92;96468.06;5107688;28;20040;-72
2023/01/18 06:10:13;;;;;;;10.40;9.30;;;;;;;2.98;81.01;96463.88;5106345;28;20036;-72
2023/01/18 06:12:41;;;;;;;11.32;9.63;;;;;;;2.96;81.00;96475.41;5107514;28;20192;-72
2023/01/18 06:15:09;;;;;;;9.90;8.85;;;;;;;2.95;80.96;96474.56;5107095;28;20088;-72
2023/01/18 06:17:36;;;;;;;10.27;9.00;;;;;;;2.94;80.88;96464.22;5107066;28;20284;-72
2023/01/18 06:20:06;;;;;;;10.57;9.48;;;;;;;2.90;80.88;96462.75;5107057;28;20050;-72
2023/01/18 06:22:32;;;;;;;10.75;9.65;;;;;;;2.88;81.09;96465.47;5107532;28;20044;-72
2023/01/18 06:24:59;;;;;;;10.77;9.57;;;;;;;2.87;81.19;96463.81;5107019;28;20165;-72
2023/01/18 06:27:26;;;;;;;11.48;10.27;;;;;;;2.84;81.36;96464.84;5107089;28;20326;-72
2023/01/18 06:29:53;;;;;;;12.23;10.93;;;;;;;2.83;81.33;96459.72;5106848;28;20054;-72
2023/01/18 06:32:19;;;;;;;11.10;9.90;;;;;;;2.81;81.34;96470.31;5105816;28;20089;-72
2023/01/18 06:34:46;;;;;;;10.93;9.82;;;;;;;2.83;81.40;96475.41;5106379;28;20052;-72
2023/01/18 06:37:14;;;;;;;11.60;10.38;;;;;;;2.81;81.36;96466.84;5107146;28;20040;-71
2023/01/18 06:39:41;;;;;;;17.05;10.45;;;;;;;2.80;81.39;96471.25;5106644;28;20036;-72
2023/01/18 06:42:08;;;;;;;11.60;10.07;;;;;;;2.81;81.43;96470.31;5106755;28;20303;-72
2023/01/18 06:44:35;;;;;;;11.30;9.60;;;;;;;2.81;81.21;96467.69;5107066;28;20050;-72
2023/01/18 06:47:01;;;;;;;11.95;10.65;;;;;;;2.83;81.43;96480.66;5106541;28;20313;-72
2023/01/18 06:49:28;;;;;;;11.90;9.98;;;;;;;2.83;81.33;96481.50;5105606;28;20051;-72
2023/01/18 06:51:55;;;;;;;15.13;11.95;;;;;;;2.84;81.41;96488.41;5105548;28;20047;-73
2023/01/18 06:54:23;;;;;;;15.07;12.43;;;;;;;2.83;81.31;96493.72;5106399;28;20044;-71
2023/01/18 06:56:50;;;;;;;13.52;11.55;;;;;;;2.80;81.30;96492.16;5106784;28;20181;-72
2023/01/18 06:59:16;;;;;;;14.10;11.93;;;;;;;2.64;81.42;96468.03;5105382;28;20051;-72
2023/01/18 07:01:43;;;;;;;14.23;11.68;;;;;;;1.96;81.28;96371.66;5105543;28;20067;-72
2023/01/18 07:04:10;;;;;;;14.65;11.23;;;;;;;2.81;81.46;96504.31;5105377;28;20054;-72
2023/01/18 07:06:37;;;;;;;14.57;11.65;;;;;;;2.82;81.31;96499.91;5105344;28;20085;-72
2023/01/18 07:09:06;;;;;;;15.55;11.93;;;;;;;2.83;81.15;96496.34;5106603;28;20346;-72
2023/01/18 07:11:35;;;;;;;14.40;12.00;;;;;;;2.83;81.09;96498.97;5105992;28;20052;-72
2023/01/18 07:14:02;;;;;;;15.05;12.98;;;;;;;2.84;81.22;96513.72;5106558;28;20040;-72
2023/01/18 07:16:29;;;;;;;16.50;11.85;;;;;;;2.84;81.21;96506.69;5105231;28;20046;-72
2023/01/18 07:18:59;;;;;;;12.55;10.48;;;;;;;2.85;81.22;96513.59;5105898;28;20051;-72
2023/01/18 07:21:28;;;;;;;13.55;11.00;;;;;;;2.86;81.18;96517.06;5105725;28;20039;-72
2023/01/18 07:23:55;;;;;;;13.52;11.43;;;;;;;2.43;80.89;96446.81;5105774;28;20032;-72
2023/01/18 07:26:22;;;;;;;14.43;12.90;;;;;;;2.82;81.14;96510.38;5105826;28;20040;-72
2023/01/18 07:28:50;;;;;;;14.90;11.80;;;;;;;2.81;81.31;96519.16;5105821;28;20349;-72
2023/01/18 07:31:18;;;;;;;14.20;11.63;;;;;;;2.80;81.53;96520.94;5106400;28;20052;-72
2023/01/18 07:33:45;;;;;;;14.63;11.82;;;;;;;2.80;81.23;96523.56;5105477;28;20040;-72
2023/01/18 07:36:12;;;;;;;14.43;11.68;;;;;;;2.82;81.16;96536.53;5106208;28;20036;-72
2023/01/18 07:38:39;;;;;;;14.57;12.15;;;;;;;2.81;81.25;96540.09;5105990;28;20276;-72
2023/01/18 07:41:08;;;;;;;15.63;12.77;;;;;;;2.84;81.43;96545.94;5106143;28;20050;-72
2023/01/18 07:43:36;;;;;;;14.80;11.63;;;;;;;2.86;81.26;96546.66;5106017;28;20040;-72
2023/01/18 07:46:05;;;;;;;16.00;12.82;;;;;;;2.69;81.23;96514.78;5105395;28;20132;-72
2023/01/18 07:48:33;;;;;;;14.90;12.88;;;;;;;2.88;81.26;96546.56;5105888;28;20157;-72
2023/01/18 07:51:02;;;;;;;16.98;12.50;;;;;;;2.88;81.23;96550.03;5105754;28;20036;-72
2023/01/18 07:53:30;;;;;;;15.77;13.70;;;;;;;2.91;81.44;96566.44;5105921;28;20036;-71
2023/01/18 07:56:01;;;;;;;14.65;12.23;;;;;;;2.88;81.28;96563.09;5105583;28;20051;-72
2023/01/18 07:58:28;;;;;;;14.77;11.55;;;;;;;2.51;81.25;96532.56;5105570;28;20098;-72
2023/01/18 08:00:55;;;;;;;15.20;12.18;;;;;;;2.95;81.22;96584.44;5104443;28;20036;-71
2023/01/18 08:03:23;;;;;;;15.07;11.90;;;;;;;2.98;81.06;96591.25;5106029;28;20280;-71
2023/01/18 08:05:50;;;;;;;14.60;11.27;;;;;;;2.99;81.05;96588.53;5105398;28;20050;-72
2023/01/18 08:08:17;;;;;;;15.85;12.02;;;;;;;2.84;81.27;96566.88;5104578;28;20040;-72
2023/01/18 08:10:45;;;;;;;17.65;13.45;;;;;;;3.10;81.11;96606.94;5105468;28;20040;-71
2023/01/18 08:13:11;;;;;;;18.55;14.55;;;;;;;3.18;81.25;96612.47;5105507;28;20082;-71
2023/01/18 08:15:39;;;;;;;18.25;14.52;;;;;;;3.27;80.99;96624.09;5104482;28;20204;-72
2023/01/18 08:18:07;;;;;;;17.02;13.80;;;;;;;3.20;80.78;96604.53;5105592;28;20188;-71
2023/01/18 08:20:35;;;;;;;19.95;13.38;;;;;;;3.37;80.87;96626.91;5105610;28;20039;-71
2023/01/18 08:23:02;;;;;;;17.35;13.65;;;;;;;3.43;80.82;96639.59;5105921;28;20043;-72
2023/01/18 08:25:32;;;;;;;16.02;13.00;;;;;;;3.45;80.43;96642.94;5105419;28;20268;-71
2023/01/18 08:28:00;;;;;;;16.30;13.30;;;;;;;3.46;80.30;96642.81;5105389;28;20048;-72
2023/01/18 08:30:29;;;;;;;17.45;13.35;;;;;;;3.61;80.14;96655.78;5105179;28;20044;-72
2023/01/18 08:32:57;;;;;;;18.27;13.70;;;;;;;3.72;80.07;96658.50;5105560;28;20044;-71
2023/01/18 08:35:24;;;;;;;16.52;13.07;;;;;;;3.76;79.57;96657.34;5104166;28;20085;-71
2023/01/18 08:37:53;;;;;;;14.35;11.10;;;;;;;3.80;79.17;96661.41;5104839;28;20044;-72
2023/01/18 08:40:20;;;;;;;15.35;11.98;;;;;;;3.87;79.00;96667.91;5105646;28;20058;-71
2023/01/18 08:42:47;;;;;;;13.90;11.40;;;;;;;3.85;78.97;96651.44;5105407;28;20314;-71
2023/01/18 08:45:15;;;;;;;14.48;12.88;;;;;;;3.92;78.85;96676.25;5104190;28;20040;-71
2023/01/18 08:47:42;;;;;;;13.90;11.55;;;;;;;3.94;78.64;96669.13;5105066;28;20193;-72
2023/01/18 08:50:10;;;;;;;13.18;11.43;;;;;;;4.01;78.55;96666.91;5104902;28;20040;-71
2023/01/18 08:52:37;;;;;;;14.55;11.55;;;;;;;4.15;78.55;96669.38;5105166;28;20318;-72
2023/01/18 08:55:07;;;;;;;12.70;10.00;;;;;;;3.29;78.36;96504.41;5105325;28;20052;-72
2023/01/18 08:57:33;;;;;;;14.98;11.00;;;;;;;4.52;78.06;96687.72;5107362;28;20044;-71
2023/01/18 09:00:02;;;;;;;13.15;10.35;;;;;;;4.61;77.57;96666.06;5107785;28;20042;-71
2023/01/18 09:02:29;;;;;;;10.77;9.07;;;;;;;4.96;76.89;96768.47;5108618;28;20206;-72
2023/01/18 09:04:57;;;;;;;7.00;6.10;;;;;;;5.12;75.37;96688.44;5108734;28;20211;-72
2023/01/18 09:07:23;;;;;;;7.50;6.20;;;;;;;5.29;74.74;96694.22;5107615;28;20130;-71
2023/01/18 09:09:50;;;;;;;7.05;6.03;;;;;;;4.90;73.72;96611.44;5107603;28;20044;-71
2023/01/18 09:12:18;;;;;;;7.03;5.80;;;;;;;5.60;73.15;96697.97;5108226;28;20040;-71
2023/01/18 09:14:45;;;;;;;7.40;5.82;;;;;;;5.67;72.02;96712.28;5107417;28;20238;-71
2023/01/18 09:17:13;;;;;;;6.18;5.53;;;;;;;5.76;71.59;96711.59;5108841;28;20222;-71
2023/01/18 09:19:40;;;;;;;6.22;5.25;;;;;;;5.90;71.40;96713.97;5107937;28;20081;-72
2023/01/18 09:22:06;;;;;;;5.50;4.85;;;;;;;5.94;70.23;96707.53;5107483;28;20036;-71
2023/01/18 09:24:35;;;;;;;7.95;4.80;;;;;;;5.99;70.17;96707.16;5108801;28;20040;-72
2023/01/18 09:27:03;;;;;;;5.22;4.60;;;;;;;5.69;70.10;96655.22;5108418;28;20191;-71
2023/01/18 09:29:31;;;;;;;6.82;5.68;;;;;;;6.20;69.61;96709.88;5106732;28;20036;-72
2023/01/18 09:31:59;;;;;;;4.85;4.35;;;;;;;6.36;69.34;96713.81;5108546;28;20048;-71
2023/01/18 09:34:26;;;;;;;8.55;4.63;;;;;;;6.48;68.66;96719.03;5108181;28;20074;-71
2023/01/18 09:36:53;;;;;;;6.47;5.13;;;;;;;6.68;68.13;96708.56;5108224;28;20036;-71
2023/01/18 09:39:23;;;;;;;5.50;4.13;;;;;;;6.62;67.14;96684.56;5106793;28;20057;-72
2023/01/18 09:41:52;;;;;;;5.05;4.22;;;;;;;6.95;67.44;96716.03;5107905;28;20050;-71
2023/01/18 09:44:24;;;;;;;5.50;4.50;;;;;;;7.12;66.56;96722.56;5107740;28;20044;-72
2023/01/18 09:46:56;;;;;;;5.15;4.30;;;;;;;7.31;65.57;96733.22;5107715;28;20063;-72
2023/01/18 09:49:32;;;;;;;5.82;4.20;;;;;;;7.40;64.82;96731.66;5107069;28;20040;-72
2023/01/18 09:52:12;;;;;;;5.75;3.80;;;;;;;7.46;62.91;96736.41;5108314;28;20048;-71
2023/01/18 09:54:46;;;;;;;6.63;4.03;;;;;;;7.60;64.12;96740.53;5107437;28;20032;-72
2023/01/18 09:57:22;;;;;;;5.55;4.30;;;;;;;7.66;62.75;96738.22;5106614;28;20184;-72
2023/01/18 09:59:54;;;;;;;5.93;4.15;;;;;;;7.68;62.36;96738.06;5107581;28;20040;-72
2023/01/18 10:02:27;;;;;;;4.80;3.70;;;;;;;7.31;63.43;96688.44;5107404;28;20052;-72
2023/01/18 10:04:58;;;;;;;6.20;3.92;;;;;;;7.68;65.02;96754.72;5108122;28;20036;-72
2023/01/18 10:07:29;;;;;;;3.97;3.58;;;;;;;7.64;63.93;96749.84;5107449;28;20048;-72
2023/01/18 10:09:59;;;;;;;4.57;3.38;;;;;;;7.42;63.47;96744.72;5107401;28;20043;-72
2023/01/18 10:12:32;;;;;;;4.47;3.50;;;;;;;7.44;62.60;96769.13;5107533;28;20191;-72
2023/01/18 10:15:21;;;;;;;4.22;3.38;;;;;;;6.41;59.63;96645.88;5107427;28;20050;-72
2023/01/18 10:17:52;;;;;;;5.20;3.40;;;;;;;7.24;63.62;96786.56;5109670;28;20230;-72
2023/01/18 10:20:27;;;;;;;4.30;3.28;;;;;;;6.12;62.34;96617.63;5109719;28;20284;-72
2023/01/18 10:22:59;;;;;;;4.55;3.40;;;;;;;6.90;63.00;96760.34;5109829;28;20040;-72
2023/01/18 10:25:32;;;;;;;3.60;3.00;;;;;;;6.93;62.12;96791.69;5109492;28;20047;-73
2023/01/18 10:28:25;;;;;;;3.92;3.20;;;;;;;5.16;60.92;96509.69;5109221;28;20055;-73
2023/01/18 10:31:08;;;;;;;6.30;4.13;;;;;;;6.79;60.41;96841.13;5109853;28;20047;-72
2023/01/18 10:33:41;;;;;;;5.88;3.33;;;;;;;6.45;62.37;96761.38;5108954;28;20337;-74
2023/01/18 10:36:16;;;;;;;5.13;3.20;;;;;;;6.01;62.48;96700.81;5109156;28;20035;-73
2023/01/18 10:38:47;;;;;;;4.60;3.60;;;;;;;4.46;63.95;96492.31;5109729;28;20068;-73
2023/01/18 10:41:20;;;;;;;7.05;3.35;;;;;;;6.63;61.39;96818.66;5108897;28;20304;-72
2023/01/18 10:43:47;;;;;;;8.27;3.75;;;;;;;6.61;63.55;96830.25;5108871;28;20044;-73
2023/01/18 10:46:17;;;;;;;3.65;3.15;;;;;;;5.78;63.63;96830.56;5108387;28;20054;-73
2023/01/18 10:48:47;;;;;;;6.28;3.67;;;;;;;6.56;63.09;96878.00;5108766;28;20070;-73
2023/01/18 10:51:29;;;;;;;4.35;3.08;;;;;;;5.73;60.00;96751.25;5108690;28;20046;-73
2023/01/18 10:53:56;;;;;;;3.30;2.80;;;;;;;6.33;63.18;96860.53;5108812;28;20112;-73
2023/01/18 10:56:26;;;;;;;4.15;2.95;;;;;;;6.43;63.17;96879.91;5109231;28;20036;-73
2023/01/18 10:58:57;;;;;;;4.80;3.03;;;;;;;6.39;62.83;96889.00;5108726;28;20040;-72
2023/01/18 11:01:29;;;;;;;3.53;2.70;;;;;;;6.34;61.15;96893.75;5108604;28;20337;-72
2023/01/18 11:04:04;;;;;;;4.00;2.90;;;;;;;3.97;62.04;96534.44;5109064;28;20032;-73
2023/01/18 11:06:44;;;;;;;3.55;2.80;;;;;;;6.31;62.76;96891.38;5107639;28;20063;-72
2023/01/18 11:09:41;;;;;;;3.55;2.90;;;;;;;6.27;58.74;96895.19;5108848;28;20078;-72
2023/01/18 11:12:35;;;;;;;4.43;2.92;;;;;;;6.23;60.08;96904.28;5108946;28;20052;-72
2023/01/18 11:15:26;;;;;;;4.43;2.80;;;;;;;6.20;59.32;96900.09;5108784;28;20039;-72
2023/01/18 11:18:05;;;;;;;4.85;3.10;;;;;;;6.18;60.85;96915.16;5107953;28;20067;-73
2023/01/18 11:20:37;;;;;;;3.60;2.50;;;;;;;3.59;62.11;96517.09;5108281;28;20066;-73
2023/01/18 11:23:14;;;;;;;4.10;2.10;;;;;;;6.13;61.58;96930.44;5108254;28;20051;-72
2023/01/18 11:25:50;;;;;;;3.45;2.15;;;;;;;4.91;60.93;96734.69;5108458;28;20044;-72
2023/01/18 11:28:19;;;;;;;4.57;2.78;;;;;;;6.11;62.16;96924.44;5107376;28;20119;-73
2023/01/18 11:30:53;;;;;;;3.40;2.90;;;;;;;4.71;59.82;96709.88;5109583;28;20062;-73
2023/01/18 11:33:21;;;;;;;3.95;2.25;;;;;;;3.28;61.07;96496.69;5109018;28;20262;-72
2023/01/18 11:35:56;;;;;;;3.05;2.15;;;;;;;3.38;58.50;96461.03;5107741;28;20066;-73
2023/01/18 11:38:27;;;;;;;3.33;2.70;;;;;;;5.64;58.53;96820.25;5108998;28;20046;-73
2023/01/18 11:41:06;;;;;;;2.63;1.77;;;;;;;5.32;57.08;96770.97;5109020;28;20059;-73
2023/01/18 11:43:38;;;;;;;2.38;1.70;;;;;;;5.04;60.15;96727.56;5108584;28;20036;-73
2023/01/18 11:46:25;;;;;;;3.30;1.80;;;;;;;6.54;55.39;96922.00;5108911;28;20256;-73
2023/01/18 11:48:56;;;;;;;3.33;2.13;;;;;;;4.21;58.87;96573.75;5108722;28;20115;-73
2023/01/18 11:51:34;;;;;;;2.78;1.77;;;;;;;4.26;57.23;96590.00;5108196;28;20115;-72
2023/01/18 11:54:07;;;;;;;2.25;1.50;;;;;;;6.63;58.46;96934.44;5108664;28;20251;-72
2023/01/18 11:56:39;;;;;;;3.05;1.92;;;;;;;5.94;59.07;96862.63;5107213;28;20035;-72
2023/01/18 11:59:14;;;;;;;4.53;2.65;;;;;;;5.81;56.90;96785.66;5108485;28;20054;-72
2023/01/18 12:02:04;;;;;;;2.78;2.10;;;;;;;6.83;57.36;96969.78;5107714;28;20059;-72
2023/01/18 12:04:44;;;;;;;2.78;1.80;;;;;;;4.98;56.01;96640.56;5108756;28;20032;-72
2023/01/18 12:07:27;;;;;;;2.30;1.45;;;;;;;6.79;56.84;96946.44;5108146;28;20046;-72
2023/01/18 12:09:56;;;;;;;2.67;1.60;;;;;;;6.80;59.08;96948.97;5108560;28;20346;-72
2023/01/18 12:12:37;;;;;;;2.50;1.80;;;;;;;6.81;56.46;96955.91;5108442;28;20042;-72
2023/01/18 12:15:28;;;;;;;2.70;1.60;;;;;;;5.15;54.80;96724.16;5107889;28;20082;-73
2023/01/18 12:18:11;;;;;;;2.22;1.50;;;;;;;4.20;56.56;96557.19;5107851;28;20070;-73
2023/01/18 12:20:49;;;;;;;2.95;1.58;;;;;;;6.99;56.48;96956.25;5107354;28;20058;-71
2023/01/18 12:23:52;;;;;;;2.13;1.50;;;;;;;6.47;54.02;96888.41;5107367;28;20052;-72